Time;durP1;ratioP1;P1;durP2;ratioP2;P2;SDS_P1;SDS_P2;PMS_P1;PMS_P2;Temp;Humidity;BMP_temperature;BMP_pressure;BME280_temperature;BME280_humidity;BME280_pressure;Samples;Min_cycle;Max_cycle;Signal;HPM_P1;HPM_P2
2023/09/12 00:00:49;;;;;;;22.50;18.42;;;22.80;99.90;;;;;;4974375;28;20034;-76
2023/09/12 00:03:19;;;;;;;26.30;18.52;;;22.50;99.90;;;;;;4971046;28;20074;-76
2023/09/12 00:05:53;;;;;;;25.58;18.40;;;22.90;99.90;;;;;;4971246;28;20482;-77
2023/09/12 00:08:19;;;;;;;24.42;19.88;;;22.60;99.90;;;;;;4973724;28;20089;-77
2023/09/12 00:10:45;;;;;;;22.33;19.52;;;22.70;99.90;;;;;;4969957;28;20031;-77
2023/09/12 00:13:11;;;;;;;21.08;18.42;;;22.30;99.90;;;;;;4973453;28;20034;-77
2023/09/12 00:15:36;;;;;;;23.80;19.80;;;22.60;99.90;;;;;;4967010;28;20047;-77
2023/09/12 00:18:03;;;;;;;23.45;18.63;;;22.50;99.90;;;;;;4969131;28;20041;-77
2023/09/12 00:20:28;;;;;;;21.77;19.33;;;22.40;99.90;;;;;;4972927;28;20039;-77
2023/09/12 00:22:54;;;;;;;24.63;19.50;;;22.20;99.90;;;;;;4973631;28;20141;-77
2023/09/12 00:25:23;;;;;;;23.95;18.40;;;22.50;99.90;;;;;;4969779;28;20525;-77
2023/09/12 00:27:48;;;;;;;23.27;19.73;;;22.70;99.90;;;;;;4952939;28;20030;-77
2023/09/12 00:30:15;;;;;;;24.13;19.85;;;22.10;99.90;;;;;;4972915;28;20132;-77
2023/09/12 00:32:41;;;;;;;21.40;18.08;;;21.80;99.90;;;;;;4970924;28;20094;-77
2023/09/12 00:35:07;;;;;;;21.90;18.92;;;22.20;99.90;;;;;;4973315;28;20034;-77
2023/09/12 00:37:32;;;;;;;25.50;20.02;;;22.40;99.90;;;;;;4972634;28;20089;-77
2023/09/12 00:39:58;;;;;;;23.88;18.33;;;22.30;99.90;;;;;;4972950;28;20463;-78
2023/09/12 00:42:27;;;;;;;23.15;19.90;;;22.60;99.90;;;;;;4956846;28;20041;-78
2023/09/12 00:44:52;;;;;;;25.98;20.73;;;22.40;99.90;;;;;;4970609;28;20042;-77
2023/09/12 00:47:20;;;;;;;24.05;19.27;;;21.80;1.00;;;;;;4969378;28;20053;-77
2023/09/12 00:49:47;;;;;;;24.48;19.45;;;22.20;1.00;;;;;;4970245;28;20545;-77
2023/09/12 00:52:14;;;;;;;27.30;21.30;;;22.10;1.00;;;;;;4952520;28;20097;-77
2023/09/12 00:54:40;;;;;;;24.25;20.75;;;22.30;1.00;;;;;;4972315;28;20041;-77
2023/09/12 00:57:06;;;;;;;24.10;18.95;;;20.50;1.00;;;;;;4953382;28;20126;-77
2023/09/12 00:59:32;;;;;;;25.35;20.88;;;21.90;1.00;;;;;;4971689;28;20034;-77
2023/09/12 01:01:59;;;;;;;24.58;19.80;;;22.30;1.00;;;;;;4970894;28;20146;-77
2023/09/12 01:04:25;;;;;;;25.73;20.58;;;22.20;1.00;;;;;;4966837;28;20098;-77
2023/09/12 01:06:52;;;;;;;25.45;21.23;;;22.00;1.00;;;;;;4953929;28;20135;-77
2023/09/12 01:09:18;;;;;;;27.83;21.42;;;22.10;1.00;;;;;;4972701;28;20137;-77
2023/09/12 01:11:44;;;;;;;28.85;21.98;;;22.20;1.00;;;;;;4967329;28;20505;-77
2023/09/12 01:14:10;;;;;;;26.30;21.48;;;21.50;1.00;;;;;;4972931;28;20035;-77
2023/09/12 01:16:35;;;;;;;28.83;22.33;;;22.40;1.00;;;;;;4972490;28;20045;-77
2023/09/12 01:19:03;;;;;;;26.70;22.40;;;22.50;1.00;;;;;;4969830;28;20038;-77
2023/09/12 01:21:38;;;;;;;25.50;21.83;;;22.20;1.00;;;;;;4971120;28;20042;-77
2023/09/12 01:24:26;;;;;;;26.40;21.48;;;22.10;1.00;;;;;;4954137;28;20045;-77
2023/09/12 01:27:19;;;;;;;27.60;21.02;;;22.20;1.00;;;;;;4965382;28;20046;-77
2023/09/12 01:29:46;;;;;;;24.23;20.95;;;22.10;1.00;;;;;;4973155;28;20150;-77
2023/09/12 01:32:14;;;;;;;25.63;21.45;;;22.00;1.00;;;;;;4970747;28;20033;-77
2023/09/12 01:34:40;;;;;;;24.75;20.88;;;21.80;8.50;;;;;;4973784;28;20053;-77
2023/09/12 01:37:06;;;;;;;27.27;21.73;;;22.10;11.40;;;;;;4952996;28;20038;-77
2023/09/12 01:39:32;;;;;;;26.80;22.20;;;22.00;23.00;;;;;;4968997;28;20039;-76
2023/09/12 01:41:59;;;;;;;27.08;22.05;;;22.00;30.70;;;;;;4969954;28;20047;-77
2023/09/12 01:44:28;;;;;;;28.75;22.70;;;21.80;45.10;;;;;;4973016;28;20042;-76
2023/09/12 01:46:56;;;;;;;25.80;20.38;;;22.30;54.20;;;;;;4973773;28;20039;-76
2023/09/12 01:49:25;;;;;;;26.48;21.02;;;22.30;56.60;;;;;;4973438;28;20075;-77
2023/09/12 01:51:51;;;;;;;26.00;20.80;;;21.80;70.70;;;;;;4958578;28;20034;-76
2023/09/12 01:54:19;;;;;;;23.85;20.45;;;21.80;67.70;;;;;;4971469;28;20052;-77
2023/09/12 01:56:45;;;;;;;26.65;20.50;;;22.10;73.00;;;;;;4955504;28;20154;-77
2023/09/12 01:59:11;;;;;;;26.33;21.05;;;21.60;74.90;;;;;;4971772;28;20053;-76
2023/09/12 02:01:37;;;;;;;24.33;20.35;;;21.20;76.30;;;;;;4973560;28;20034;-77
2023/09/12 02:04:08;;;;;;;25.73;19.58;;;21.70;71.40;;;;;;4973725;28;20062;-77
2023/09/12 02:06:36;;;;;;;20.20;17.40;;;21.90;70.30;;;;;;4971413;28;20066;-77
2023/09/12 02:09:02;;;;;;;21.35;18.35;;;21.90;67.30;;;;;;4971543;28;20039;-77
2023/09/12 02:11:28;;;;;;;21.08;17.17;;;21.40;57.50;;;;;;4970275;28;20038;-77
2023/09/12 02:13:53;;;;;;;22.17;16.92;;;22.10;50.60;;;;;;4973581;28;20473;-77
2023/09/12 02:16:19;;;;;;;19.98;16.77;;;22.10;39.30;;;;;;4970574;28;20042;-76
2023/09/12 02:18:45;;;;;;;20.05;16.70;;;22.10;34.60;;;;;;4972988;28;20092;-77
2023/09/12 02:21:10;;;;;;;18.75;15.15;;;21.80;23.70;;;;;;4969800;28;20039;-77
2023/09/12 02:23:36;;;;;;;20.95;17.58;;;22.30;10.30;;;;;;4970616;28;20486;-77
2023/09/12 02:26:02;;;;;;;22.02;18.05;;;22.40;1.00;;;;;;4971027;28;20413;-77
2023/09/12 02:28:28;;;;;;;18.83;15.75;;;22.50;1.00;;;;;;4973764;28;20058;-77
2023/09/12 02:30:53;;;;;;;19.98;16.55;;;22.00;1.00;;;;;;4955637;28;20031;-77
2023/09/12 02:33:19;;;;;;;19.77;16.63;;;22.00;1.00;;;;;;4968769;28;20073;-77
2023/09/12 02:35:45;;;;;;;19.92;16.92;;;22.20;1.00;;;;;;4972878;28;20035;-77
2023/09/12 02:38:10;;;;;;;23.15;17.98;;;22.20;1.00;;;;;;4954848;28;20034;-77
2023/09/12 02:40:36;;;;;;;21.73;17.35;;;21.40;1.00;;;;;;4972590;28;20106;-77
2023/09/12 02:43:01;;;;;;;21.13;17.27;;;22.00;1.00;;;;;;4971761;28;20050;-76
2023/09/12 02:45:27;;;;;;;22.15;16.67;;;22.10;1.00;;;;;;4970722;28;20050;-77
2023/09/12 02:47:53;;;;;;;22.75;18.65;;;22.10;1.00;;;;;;4972345;28;20118;-77
2023/09/12 02:50:18;;;;;;;21.73;18.17;;;22.10;1.00;;;;;;4971250;28;20070;-76
2023/09/12 02:52:44;;;;;;;20.98;16.48;;;22.30;1.00;;;;;;4956784;28;20034;-77
2023/09/12 02:55:10;;;;;;;19.40;16.90;;;22.50;1.00;;;;;;4971979;28;20093;-76
2023/09/12 02:57:36;;;;;;;19.90;16.63;;;22.10;1.00;;;;;;4953451;28;20038;-77
2023/09/12 03:00:02;;;;;;;17.45;15.27;;;21.80;1.00;;;;;;4971765;28;20545;-77
2023/09/12 03:02:29;;;;;;;18.70;14.38;;;22.00;1.00;;;;;;4955700;28;20092;-77
2023/09/12 03:04:54;;;;;;;19.33;15.93;;;22.20;1.00;;;;;;4971609;28;20039;-77
2023/09/12 03:07:20;;;;;;;18.20;15.02;;;22.20;1.00;;;;;;4969781;28;20165;-77
2023/09/12 03:09:49;;;;;;;17.33;14.88;;;22.10;1.00;;;;;;4971770;28;20031;-76
2023/09/12 03:12:15;;;;;;;18.80;15.30;;;22.00;1.00;;;;;;4968464;28;20085;-77
2023/09/12 03:14:41;;;;;;;17.65;14.73;;;22.00;99.90;;;;;;4953669;28;20461;-78
2023/09/12 03:17:06;;;;;;;15.75;12.77;;;22.20;99.90;;;;;;4969798;28;20038;-77
2023/09/12 03:19:32;;;;;;;16.60;14.32;;;22.10;99.90;;;;;;4970744;28;20039;-77
2023/09/12 03:21:57;;;;;;;15.95;13.90;;;21.70;99.90;;;;;;4970167;28;20035;-77
2023/09/12 03:24:24;;;;;;;16.17;14.48;;;22.00;99.90;;;;;;4953238;28;20498;-77
2023/09/12 03:26:53;;;;;;;14.82;13.05;;;21.90;99.90;;;;;;4953475;28;20041;-76
2023/09/12 03:29:19;;;;;;;15.35;12.45;;;21.10;99.90;;;;;;4970446;28;20039;-77
2023/09/12 03:31:45;;;;;;;18.23;15.35;;;22.00;99.90;;;;;;4954166;28;20037;-76
2023/09/12 03:34:10;;;;;;;18.98;15.75;;;22.00;99.90;;;;;;4969947;28;20086;-77
2023/09/12 03:36:36;;;;;;;17.58;15.48;;;22.00;99.90;;;;;;4968284;28;20034;-77
2023/09/12 03:39:05;;;;;;;17.40;15.48;;;21.90;99.90;;;;;;4971419;28;20401;-76
2023/09/12 03:41:30;;;;;;;18.30;15.57;;;21.10;99.90;;;;;;4955045;28;20047;-76
2023/09/12 03:43:56;;;;;;;18.52;15.88;;;21.10;99.90;;;;;;4970680;28;20061;-77
2023/09/12 03:46:22;;;;;;;19.75;17.40;;;21.30;99.90;;;;;;4970348;28;20043;-77
2023/09/12 03:48:48;;;;;;;18.40;16.17;;;21.70;1.00;;;;;;4971526;28;20406;-77
2023/09/12 03:51:14;;;;;;;19.98;16.10;;;21.70;1.00;;;;;;4970591;28;20051;-77
2023/09/12 03:53:40;;;;;;;17.92;15.48;;;22.10;1.00;;;;;;4955185;28;20498;-76
2023/09/12 03:56:06;;;;;;;19.40;15.98;;;21.60;1.00;;;;;;4954758;28;20035;-77
2023/09/12 03:58:31;;;;;;;17.58;14.88;;;21.90;1.00;;;;;;4970121;28;20058;-76
2023/09/12 04:00:57;;;;;;;15.73;13.57;;;21.70;1.00;;;;;;4970721;28;20502;-77
2023/09/12 04:03:23;;;;;;;15.10;13.18;;;22.00;1.00;;;;;;4954240;28;20050;-77
2023/09/12 04:05:50;;;;;;;13.52;11.65;;;22.20;1.00;;;;;;4955059;28;20042;-77
2023/09/12 04:08:16;;;;;;;13.50;11.48;;;21.70;1.00;;;;;;4955168;28;20463;-77
2023/09/12 04:10:42;;;;;;;13.20;11.63;;;22.20;1.00;;;;;;4970753;28;20037;-77
2023/09/12 04:13:08;;;;;;;11.88;10.63;;;21.80;1.00;;;;;;4954999;28;20486;-76
2023/09/12 04:15:34;;;;;;;11.65;10.45;;;21.90;1.00;;;;;;4954997;28;20074;-76
2023/09/12 04:17:59;;;;;;;11.73;10.52;;;21.10;1.00;;;;;;4971754;28;20500;-76
2023/09/12 04:20:25;;;;;;;13.05;11.18;;;22.00;99.90;;;;;;4970400;28;20109;-76
2023/09/12 04:22:51;;;;;;;14.57;13.00;;;22.10;99.90;;;;;;4971628;28;20073;-77
2023/09/12 04:25:19;;;;;;;14.07;11.52;;;22.00;99.90;;;;;;4954847;28;20115;-77
2023/09/12 04:27:45;;;;;;;17.15;14.25;;;21.90;1.00;;;;;;4968071;28;20039;-77
2023/09/12 04:30:11;;;;;;;15.85;13.43;;;21.00;1.00;;;;;;4969964;28;20039;-77
2023/09/12 04:32:37;;;;;;;18.63;16.60;;;21.90;1.00;;;;;;4953316;28;20038;-77
2023/09/12 04:35:03;;;;;;;20.38;15.45;;;21.90;1.00;;;;;;4957035;28;20049;-77
2023/09/12 04:37:29;;;;;;;21.20;16.40;;;22.00;1.00;;;;;;4972514;28;20046;-77
2023/09/12 04:39:54;;;;;;;22.70;16.75;;;21.80;1.00;;;;;;4974230;28;20043;-76
2023/09/12 04:42:20;;;;;;;21.20;16.55;;;20.90;1.00;;;;;;4969233;28;20035;-76
2023/09/12 04:44:46;;;;;;;23.52;15.82;;;21.80;1.00;;;;;;4962624;28;20038;-77
2023/09/12 04:47:12;;;;;;;20.05;16.17;;;21.00;1.00;;;;;;4957820;28;20040;-76
2023/09/12 04:49:39;;;;;;;19.55;16.40;;;22.10;1.00;;;;;;4947917;28;20164;-76
2023/09/12 04:52:05;;;;;;;21.00;17.08;;;22.00;1.00;;;;;;4968961;28;20122;-76
2023/09/12 04:54:30;;;;;;;22.95;15.35;;;21.80;1.00;;;;;;4970595;28;20073;-76
2023/09/12 04:56:56;;;;;;;23.48;18.98;;;21.60;1.00;;;;;;4969481;28;20066;-76
2023/09/12 04:59:22;;;;;;;21.23;17.25;;;22.20;1.00;;;;;;4955302;28;20038;-76
2023/09/12 05:01:48;;;;;;;25.98;19.35;;;22.00;1.00;;;;;;4972046;28;20050;-76
2023/09/12 05:04:13;;;;;;;24.17;19.42;;;21.90;1.00;;;;;;4971740;28;20049;-76
2023/09/12 05:06:39;;;;;;;29.80;22.83;;;20.90;1.00;;;;;;4953858;28;20101;-77
2023/09/12 05:09:08;;;;;;;25.85;19.90;;;21.90;1.00;;;;;;4950984;28;20041;-76
2023/09/12 05:11:34;;;;;;;30.65;22.67;;;22.10;1.00;;;;;;4961138;28;20295;-76
2023/09/12 05:14:03;;;;;;;32.50;24.08;;;21.90;1.00;;;;;;4957391;28;20270;-76
2023/09/12 05:16:29;;;;;;;31.02;24.55;;;21.90;1.00;;;;;;4967846;28;20050;-76
2023/09/12 05:18:54;;;;;;;30.55;21.98;;;21.80;1.00;;;;;;4953178;28;20498;-76
2023/09/12 05:21:20;;;;;;;30.60;22.77;;;22.00;1.00;;;;;;4967801;28;20039;-76
2023/09/12 05:23:46;;;;;;;30.08;22.40;;;21.80;1.00;;;;;;4965876;28;20078;-76
2023/09/12 05:26:12;;;;;;;29.65;22.27;;;21.50;1.00;;;;;;4971470;28;20035;-76
2023/09/12 05:28:37;;;;;;;27.05;20.48;;;21.00;1.00;;;;;;4971373;28;20039;-76
2023/09/12 05:31:03;;;;;;;28.92;22.40;;;21.60;1.00;;;;;;4971145;28;20039;-75
2023/09/12 05:33:29;;;;;;;27.08;21.02;;;21.80;1.00;;;;;;4971153;28;20039;-76
2023/09/12 05:35:54;;;;;;;27.10;21.02;;;21.20;1.00;;;;;;4955292;28;20585;-76
2023/09/12 05:38:20;;;;;;;27.35;21.30;;;22.10;1.00;;;;;;4969451;28;20043;-76
2023/09/12 05:40:46;;;;;;;25.55;20.50;;;21.60;1.00;;;;;;4970887;28;20051;-76
2023/09/12 05:43:12;;;;;;;24.98;20.17;;;21.70;1.00;;;;;;4971824;28;20157;-75
2023/09/12 05:45:37;;;;;;;24.40;20.83;;;21.20;1.00;;;;;;4969456;28;20061;-76
2023/09/12 05:48:04;;;;;;;25.10;20.63;;;21.20;1.00;;;;;;4968140;28;20394;-76
2023/09/12 05:50:30;;;;;;;22.67;19.17;;;22.00;1.00;;;;;;4967217;28;20158;-76
2023/09/12 05:52:55;;;;;;;23.98;19.85;;;21.90;1.00;;;;;;4971312;28;20117;-76
2023/09/12 05:55:21;;;;;;;26.35;20.27;;;21.90;1.00;;;;;;4965615;28;20497;-76
2023/09/12 05:57:52;;;;;;;23.92;19.50;;;21.80;1.00;;;;;;4966484;28;20038;-76
2023/09/12 06:00:17;;;;;;;25.60;20.77;;;21.60;1.00;;;;;;4966385;28;20071;-76
2023/09/12 06:02:44;;;;;;;24.52;19.88;;;21.20;1.00;;;;;;4948245;28;20128;-75
2023/09/12 06:05:10;;;;;;;24.98;21.35;;;22.10;1.00;;;;;;4965665;28;20046;-75
2023/09/12 06:07:36;;;;;;;27.55;22.58;;;21.70;1.00;;;;;;4948816;28;20047;-75
2023/09/12 06:10:02;;;;;;;26.27;20.23;;;21.80;1.00;;;;;;4970210;28;20490;-76
2023/09/12 06:12:28;;;;;;;23.65;19.55;;;21.80;1.00;;;;;;4954285;28;20461;-74
2023/09/12 06:14:55;;;;;;;24.50;20.15;;;22.00;1.00;;;;;;4960294;28;20218;-76
2023/09/12 06:17:21;;;;;;;25.25;20.50;;;21.40;1.00;;;;;;4960454;28;20047;-76
2023/09/12 06:19:49;;;;;;;22.63;18.10;;;22.00;1.00;;;;;;4967782;28;20066;-75
2023/09/12 06:22:17;;;;;;;24.80;18.90;;;22.00;1.00;;;;;;4961979;28;20047;-76
2023/09/12 06:24:43;;;;;;;20.55;17.33;;;21.70;1.00;;;;;;4946816;28;20510;-76
2023/09/12 06:27:09;;;;;;;22.38;18.30;;;21.10;1.00;;;;;;4951981;28;20049;-76
2023/09/12 06:29:35;;;;;;;20.67;16.75;;;21.20;1.00;;;;;;4962470;28;20130;-76
2023/09/12 06:32:02;;;;;;;21.75;18.63;;;22.00;1.00;;;;;;4967138;28;20129;-75
2023/09/12 06:34:27;;;;;;;18.88;15.32;;;22.10;1.00;;;;;;4951595;28;20457;-77
2023/09/12 06:36:53;;;;;;;16.48;13.10;;;21.80;1.00;;;;;;4966636;28;20046;-76
2023/09/12 06:39:19;;;;;;;23.95;19.45;;;21.80;1.00;;;;;;4968619;28;20089;-76
2023/09/12 06:41:45;;;;;;;21.30;17.15;;;22.10;1.00;;;;;;4948396;28;20068;-76
2023/09/12 06:44:10;;;;;;;20.95;18.15;;;21.20;1.00;;;;;;4968632;28;20046;-77
2023/09/12 06:46:38;;;;;;;21.35;16.98;;;22.30;1.00;;;;;;4961493;28;20054;-76
2023/09/12 06:49:03;;;;;;;22.13;18.15;;;22.10;1.00;;;;;;4952487;28;20042;-77
2023/09/12 06:51:29;;;;;;;24.75;18.85;;;22.10;1.00;;;;;;4951559;28;20049;-77
2023/09/12 06:53:55;;;;;;;24.42;19.98;;;22.00;1.00;;;;;;4951823;28;20498;-74
2023/09/12 06:56:21;;;;;;;25.92;21.05;;;22.10;1.00;;;;;;4968945;28;20051;-74
2023/09/12 06:58:47;;;;;;;27.25;20.70;;;21.40;1.00;;;;;;4966360;28;20078;-74
2023/09/12 07:01:13;;;;;;;26.67;21.48;;;21.80;1.00;;;;;;4968519;28;20042;-74
2023/09/12 07:03:39;;;;;;;29.33;22.60;;;22.00;1.00;;;;;;4963955;28;20576;-74
2023/09/12 07:06:05;;;;;;;28.35;21.65;;;22.00;1.00;;;;;;4967929;28;20042;-75
2023/09/12 07:08:32;;;;;;;29.63;23.25;;;22.10;1.00;;;;;;4968851;28;20413;-74
2023/09/12 07:11:05;;;;;;;33.53;23.50;;;22.00;1.00;;;;;;4969162;28;20034;-74
2023/09/12 07:13:31;;;;;;;28.45;22.45;;;22.00;1.00;;;;;;4966474;28;20042;-74
2023/09/12 07:15:57;;;;;;;27.80;22.80;;;21.90;1.00;;;;;;4968051;28;21618;-74
2023/09/12 07:18:23;;;;;;;29.88;24.52;;;22.10;1.00;;;;;;4966317;28;20047;-73
2023/09/12 07:21:00;;;;;;;31.55;24.40;;;22.00;1.00;;;;;;4966848;28;20532;-72
2023/09/12 07:23:25;;;;;;;28.38;22.80;;;22.00;1.00;;;;;;4966082;28;20557;-72
2023/09/12 07:25:52;;;;;;;30.80;24.60;;;22.10;1.00;;;;;;4967967;28;20039;-73
2023/09/12 07:28:18;;;;;;;32.90;25.23;;;22.20;4.60;;;;;;4963544;28;20053;-72
2023/09/12 07:30:46;;;;;;;32.10;23.58;;;21.70;20.90;;;;;;4961635;28;20130;-72
2023/09/12 07:33:12;;;;;;;34.80;26.50;;;22.00;29.40;;;;;;4969311;28;20577;-73
2023/09/12 07:35:38;;;;;;;34.30;26.13;;;22.40;44.80;;;;;;4961855;28;20122;-73
2023/09/12 07:38:04;;;;;;;33.90;26.25;;;20.90;60.90;;;;;;4967910;28;20046;-73
2023/09/12 07:40:29;;;;;;;32.55;25.90;;;22.40;85.60;;;;;;4966516;28;20167;-73
2023/09/12 07:42:55;;;;;;;32.80;24.92;;;22.10;93.70;;;;;;4968573;28;20046;-73
2023/09/12 07:45:21;;;;;;;34.78;26.27;;;22.30;99.90;;;;;;4965752;28;20057;-73
2023/09/12 07:47:47;;;;;;;34.42;24.15;;;22.20;99.90;;;;;;4967739;28;20038;-76
2023/09/12 07:50:12;;;;;;;32.88;25.38;;;22.00;99.90;;;;;;4963819;28;20039;-76
2023/09/12 07:52:38;;;;;;;35.33;25.63;;;22.10;99.90;;;;;;4965981;28;20046;-76
2023/09/12 07:55:04;;;;;;;33.45;24.13;;;22.20;99.90;;;;;;4968244;28;20039;-76
2023/09/12 07:57:31;;;;;;;34.30;24.15;;;22.10;99.90;;;;;;4966860;28;20093;-77
2023/09/12 07:59:57;;;;;;;28.98;23.52;;;22.20;99.90;;;;;;4961204;28;20034;-76
2023/09/12 08:02:23;;;;;;;32.17;23.75;;;21.90;99.90;;;;;;4960842;28;20574;-76
2023/09/12 08:04:55;;;;;;;32.65;23.38;;;22.20;99.90;;;;;;4965537;28;20405;-76
2023/09/12 08:07:21;;;;;;;31.45;23.92;;;22.60;99.90;;;;;;4966587;28;20560;-76
2023/09/12 08:09:53;;;;;;;28.20;22.55;;;22.30;99.90;;;;;;4954277;28;20133;-76
2023/09/12 08:12:21;;;;;;;28.35;21.85;;;22.20;99.90;;;;;;4973943;28;20081;-76
2023/09/12 08:14:47;;;;;;;33.22;22.60;;;22.20;99.90;;;;;;4968347;28;20153;-76
2023/09/12 08:17:13;;;;;;;30.75;23.15;;;22.20;99.90;;;;;;4971950;28;20141;-75
2023/09/12 08:19:40;;;;;;;29.15;22.17;;;22.20;99.90;;;;;;4972124;28;20057;-75
2023/09/12 08:26:40;;;;;;;26.95;18.92;;;23.70;99.90;;;;;;4990609;28;20551;-89
